SAS7629 ENBO-ENTC

Flight info

Callsign SAS7629
Flight time 0h 45m
Altitude 31000
Route DCT
Aircraft A320/M-SDE3FGHIRWY/LB1

Departure

Time 2026-04-20 16:36
Airport Bodø Airport (ENBO)

Arrival

Time 2026-04-20 17:21
Airport Tromsø Airport (ENTC)
Time Latitude Longitude Altitude Speed Heading
2026-04-20 16:10 67.27231 14.36930 47 ft 0 kts 300°
2026-04-20 16:26 67.27225 14.36958 46 ft 4 kts 297°
2026-04-20 16:26 67.27213 14.37019 43 ft 4 kts 297°
2026-04-20 16:27 67.27202 14.37079 46 ft 4 kts 298°
2026-04-20 16:27 67.27194 14.37113 44 ft 1 kts 298°
2026-04-20 16:31 67.27196 14.37066 44 ft 6 kts 258°
2026-04-20 16:31 67.27151 14.37041 47 ft 8 kts 155°
2026-04-20 16:32 67.27125 14.37135 50 ft 5 kts 109°
2026-04-20 16:32 67.27117 14.37196 52 ft 2 kts 109°
2026-04-20 16:32 67.27128 14.37485 54 ft 33 kts 78°
2026-04-20 16:32 67.27163 14.37978 52 ft 26 kts 87°
2026-04-20 16:33 67.27145 14.38331 53 ft 17 kts 132°
2026-04-20 16:33 67.27090 14.38539 54 ft 16 kts 83°
2026-04-20 16:33 67.27117 14.38844 52 ft 19 kts 77°
2026-04-20 16:33 67.27147 14.39203 52 ft 22 kts 78°
2026-04-20 16:34 67.27169 14.39610 51 ft 19 kts 94°
2026-04-20 16:34 67.27189 14.39687 51 ft 3 kts 291°
2026-04-20 16:34 67.27180 14.39627 48 ft 5 kts 251°
2026-04-20 16:34 67.27174 14.39557 46 ft 0 kts 258°
2026-04-20 16:35 67.27174 14.39553 46 ft 1 kts 258°
2026-04-20 16:35 67.27152 14.39300 52 ft 44 kts 257°
2026-04-20 16:35 67.27036 14.37949 52 ft 107 kts 258°
2026-04-20 16:35 67.26840 14.35629 38 ft 155 kts 257°
2026-04-20 16:36 67.26588 14.32686 308 ft 175 kts 258°
2026-04-20 16:36 67.26342 14.29503 1013 ft 180 kts 258°
2026-04-20 16:36 67.26116 14.26370 1836 ft 173 kts 268°
2026-04-20 16:36 67.26317 14.23430 2606 ft 161 kts 294°
2026-04-20 16:37 67.26936 14.21197 3367 ft 145 kts 318°
2026-04-20 16:37 67.27725 14.19949 4044 ft 128 kts 340°
2026-04-20 16:37 67.28714 14.19453 4059 ft 177 kts 353°
2026-04-20 16:37 67.30166 14.19134 4060 ft 232 kts 355°
2026-04-20 16:38 67.31902 14.19202 4591 ft 263 kts 13°
2026-04-20 16:38 67.33588 14.21477 5253 ft 289 kts 38°
2026-04-20 16:38 67.35149 14.25123 5783 ft 312 kts 42°
2026-04-20 16:38 67.36713 14.28907 6289 ft 298 kts 42°
2026-04-20 16:39 67.38190 14.32493 6811 ft 287 kts 42°
2026-04-20 16:39 67.39644 14.36019 7308 ft 282 kts 41°
2026-04-20 16:39 67.41183 14.39129 7808 ft 279 kts 33°
2026-04-20 16:39 67.42801 14.41833 8316 ft 281 kts 30°
2026-04-20 16:40 67.44490 14.44454 8647 ft 280 kts 29°
2026-04-20 16:40 67.46189 14.47059 9170 ft 285 kts 29°
2026-04-20 16:40 67.47907 14.49724 9709 ft 289 kts 30°
2026-04-20 16:40 67.49638 14.52462 10259 ft 292 kts 30°
2026-04-20 16:41 67.51376 14.55260 10742 ft 295 kts 31°
2026-04-20 16:41 67.53128 14.58112 11247 ft 298 kts 31°
2026-04-20 16:41 67.54896 14.61006 11752 ft 301 kts 31°
2026-04-20 16:41 67.56677 14.63934 12264 ft 304 kts 31°
2026-04-20 16:42 67.58473 14.66897 12779 ft 307 kts 31°
2026-04-20 16:42 67.60284 14.69897 13308 ft 311 kts 32°
2026-04-20 16:42 67.62137 14.72967 13853 ft 320 kts 32°
2026-04-20 16:42 67.64038 14.76122 14378 ft 328 kts 32°
2026-04-20 16:43 67.66001 14.79380 14873 ft 336 kts 32°
2026-04-20 16:43 67.68004 14.82709 15367 ft 345 kts 32°
2026-04-20 16:43 67.70056 14.86122 15875 ft 352 kts 32°
2026-04-20 16:43 67.72143 14.89599 16390 ft 359 kts 32°
2026-04-20 16:44 67.74269 14.93157 16906 ft 364 kts 32°
2026-04-20 16:44 67.76414 14.96767 17431 ft 367 kts 32°
2026-04-20 16:44 67.78578 15.00422 17974 ft 371 kts 32°
2026-04-20 16:44 67.80759 15.04106 18523 ft 374 kts 32°
2026-04-20 16:45 67.82962 15.07827 19029 ft 377 kts 32°
2026-04-20 16:45 67.85185 15.11585 19517 ft 380 kts 32°
2026-04-20 16:45 67.87423 15.15371 20003 ft 384 kts 33°
2026-04-20 16:45 67.89681 15.19208 20364 ft 387 kts 33°
2026-04-20 16:46 67.91950 15.23082 20447 ft 388 kts 33°
2026-04-20 16:46 67.94223 15.26975 20460 ft 388 kts 33°
2026-04-20 16:46 67.96496 15.30880 20458 ft 389 kts 33°
2026-04-20 16:46 67.98766 15.34785 20456 ft 388 kts 33°
2026-04-20 16:47 68.01035 15.38698 20457 ft 388 kts 33°
2026-04-20 16:47 68.03303 15.42619 20457 ft 388 kts 33°
2026-04-20 16:47 68.05571 15.46544 20451 ft 388 kts 33°
2026-04-20 16:47 68.07810 15.50585 20451 ft 388 kts 36°
2026-04-20 16:48 68.09998 15.54811 20450 ft 388 kts 37°
2026-04-20 16:48 68.12133 15.59109 20449 ft 388 kts 38°
2026-04-20 16:48 68.14309 15.63565 20449 ft 388 kts 38°
2026-04-20 16:48 68.16453 15.67969 20448 ft 389 kts 38°
2026-04-20 16:49 68.18606 15.72365 20447 ft 389 kts 37°
2026-04-20 16:49 68.20736 15.76677 20447 ft 389 kts 37°
2026-04-20 16:49 68.22903 15.81042 20444 ft 389 kts 37°
2026-04-20 16:49 68.25066 15.85394 20445 ft 389 kts 37°
2026-04-20 16:50 68.27236 15.89768 20440 ft 389 kts 37°
2026-04-20 16:50 68.29399 15.94140 20440 ft 389 kts 37°
2026-04-20 16:50 68.31562 15.98528 20441 ft 389 kts 37°
2026-04-20 16:50 68.33725 16.02929 20441 ft 389 kts 37°
2026-04-20 16:51 68.35883 16.07333 20437 ft 389 kts 37°
2026-04-20 16:51 68.38091 16.11846 20442 ft 408 kts 37°
2026-04-20 16:51 68.40412 16.16596 20439 ft 427 kts 37°
2026-04-20 16:51 68.42811 16.21520 20436 ft 436 kts 37°
2026-04-20 16:52 68.45235 16.26511 20436 ft 438 kts 37°
2026-04-20 16:52 68.47664 16.31532 20435 ft 439 kts 38°
2026-04-20 16:52 68.50096 16.36580 20435 ft 439 kts 38°
2026-04-20 16:52 68.52529 16.41647 20439 ft 440 kts 38°
2026-04-20 16:53 68.54954 16.46709 20438 ft 439 kts 38°
2026-04-20 16:53 68.57382 16.51791 20438 ft 439 kts 38°
2026-04-20 16:53 68.59808 16.56883 20436 ft 439 kts 38°
2026-04-20 16:53 68.62233 16.61979 20435 ft 440 kts 38°
2026-04-20 16:54 68.64657 16.67079 20432 ft 440 kts 38°
2026-04-20 16:54 68.67081 16.72202 20431 ft 440 kts 38°
2026-04-20 16:54 68.69500 16.77329 20431 ft 440 kts 38°
2026-04-20 16:54 68.71901 16.82431 20426 ft 428 kts 38°
2026-04-20 16:55 68.74209 16.87354 20409 ft 411 kts 38°
2026-04-20 16:55 68.76435 16.92114 20277 ft 398 kts 38°
2026-04-20 16:55 68.78565 16.96681 20124 ft 387 kts 38°
2026-04-20 16:55 68.80687 17.01248 19878 ft 387 kts 38°
2026-04-20 16:56 68.82797 17.05793 19627 ft 380 kts 38°
2026-04-20 16:56 68.84862 17.10253 19382 ft 372 kts 38°
2026-04-20 16:56 68.86873 17.14610 19136 ft 364 kts 38°
2026-04-20 16:56 68.88848 17.18898 18895 ft 357 kts 38°
2026-04-20 16:57 68.90787 17.23113 18636 ft 350 kts 38°
2026-04-20 16:57 68.92687 17.27253 18373 ft 345 kts 38°
2026-04-20 16:57 68.94554 17.31333 18102 ft 340 kts 38°
2026-04-20 16:57 68.96408 17.35396 17827 ft 337 kts 38°
2026-04-20 16:58 68.98241 17.39433 17556 ft 336 kts 38°
2026-04-20 16:58 69.00070 17.43468 17294 ft 334 kts 38°
2026-04-20 16:58 69.01274 17.46122 17116 ft 333 kts 38°
2026-04-20 16:58 69.03678 17.51427 16764 ft 332 kts 38°
2026-04-20 16:59 69.05485 17.55418 16506 ft 330 kts 38°
2026-04-20 16:59 69.07282 17.59396 16247 ft 329 kts 38°
2026-04-20 16:59 69.09071 17.63371 15987 ft 328 kts 38°
2026-04-20 16:59 69.10852 17.67337 15737 ft 327 kts 38°
2026-04-20 17:00 69.14391 17.75241 15228 ft 324 kts 38°
2026-04-20 17:00 69.16150 17.79189 14969 ft 323 kts 38°
2026-04-20 17:00 69.17899 17.83127 14741 ft 322 kts 38°
2026-04-20 17:01 69.19055 17.85734 14575 ft 321 kts 38°
2026-04-20 17:01 69.20795 17.89660 14333 ft 320 kts 38°
2026-04-20 17:01 69.22525 17.93571 14072 ft 318 kts 38°
2026-04-20 17:01 69.24247 17.97471 13802 ft 317 kts 38°
2026-04-20 17:02 69.25960 18.01360 13527 ft 315 kts 38°
2026-04-20 17:02 69.27664 18.05235 13268 ft 314 kts 38°
2026-04-20 17:02 69.29354 18.09088 13013 ft 311 kts 38°
2026-04-20 17:02 69.31025 18.12901 12742 ft 307 kts 38°
2026-04-20 17:03 69.32677 18.16667 12486 ft 303 kts 38°
2026-04-20 17:03 69.34303 18.20381 12227 ft 299 kts 38°
2026-04-20 17:03 69.35912 18.24069 11967 ft 295 kts 38°
2026-04-20 17:03 69.36960 18.26484 11806 ft 292 kts 38°
2026-04-20 17:04 69.37241 18.27132 11754 ft 292 kts 38°
2026-04-20 17:04 69.38376 18.29763 11589 ft 289 kts 38°
2026-04-20 17:04 69.39923 18.33343 11334 ft 285 kts 38°
2026-04-20 17:04 69.41454 18.36884 11083 ft 282 kts 38°
2026-04-20 17:05 69.42948 18.40343 10841 ft 279 kts 38°
2026-04-20 17:05 69.44449 18.43825 10594 ft 278 kts 38°
2026-04-20 17:05 69.45941 18.47298 10352 ft 276 kts 37°
2026-04-20 17:05 69.47422 18.50755 10113 ft 275 kts 38°
2026-04-20 17:06 69.48894 18.54200 9889 ft 273 kts 38°
2026-04-20 17:06 69.50362 18.57634 9685 ft 272 kts 38°
2026-04-20 17:06 69.51820 18.61043 9469 ft 271 kts 38°
2026-04-20 17:06 69.53273 18.64445 9254 ft 269 kts 38°
2026-04-20 17:07 69.54719 18.67841 9043 ft 268 kts 38°
2026-04-20 17:07 69.56159 18.71226 8830 ft 267 kts 38°
2026-04-20 17:07 69.57591 18.74599 8622 ft 266 kts 38°
2026-04-20 17:07 69.59014 18.77970 8422 ft 265 kts 38°
2026-04-20 17:08 69.60428 18.81331 8218 ft 264 kts 38°
2026-04-20 17:08 69.61836 18.84685 8012 ft 263 kts 38°
2026-04-20 17:08 69.63243 18.88029 7802 ft 261 kts 38°
2026-04-20 17:08 69.64638 18.91304 7609 ft 260 kts 35°
2026-04-20 17:09 69.66129 18.94199 7406 ft 258 kts 28°
2026-04-20 17:09 69.67718 18.96563 7216 ft 256 kts 21°
2026-04-20 17:09 69.69379 18.98370 7043 ft 255 kts 15°
2026-04-20 17:09 69.71089 18.99616 6866 ft 253 kts
2026-04-20 17:10 69.72820 19.00381 6689 ft 251 kts
2026-04-20 17:10 69.74547 19.01089 6502 ft 250 kts
2026-04-20 17:10 69.76266 19.01793 6321 ft 250 kts
2026-04-20 17:10 69.77982 19.02499 6143 ft 249 kts
2026-04-20 17:11 69.79695 19.03216 5936 ft 248 kts
2026-04-20 17:11 69.81399 19.03936 5768 ft 247 kts
2026-04-20 17:11 69.83102 19.04649 5587 ft 247 kts
2026-04-20 17:11 69.84799 19.05356 5404 ft 246 kts
2026-04-20 17:12 69.86489 19.06061 5223 ft 245 kts
2026-04-20 17:12 69.88179 19.06769 5043 ft 245 kts
2026-04-20 17:12 69.89861 19.07476 4905 ft 244 kts
2026-04-20 17:12 69.91522 19.08176 4819 ft 236 kts
2026-04-20 17:13 69.93111 19.08849 4738 ft 226 kts
2026-04-20 17:13 69.94654 19.09107 4652 ft 220 kts 345°
2026-04-20 17:13 69.95899 19.07022 4536 ft 200 kts 307°
2026-04-20 17:13 69.96408 19.03507 4513 ft 186 kts 274°
2026-04-20 17:14 69.96173 18.99965 4476 ft 174 kts 242°
2026-04-20 17:14 69.95359 18.97435 4489 ft 172 kts 212°
2026-04-20 17:14 69.94280 18.96605 4497 ft 156 kts 173°
2026-04-20 17:14 69.93286 18.97783 4490 ft 154 kts 161°
2026-04-20 17:15 69.92274 18.98706 4502 ft 152 kts 166°
2026-04-20 17:15 69.91271 18.99587 4497 ft 150 kts 166°
2026-04-20 17:15 69.90275 19.00460 4500 ft 149 kts 166°
2026-04-20 17:15 69.89285 19.01329 4504 ft 148 kts 166°
2026-04-20 17:16 69.88309 19.02185 4503 ft 149 kts 166°
2026-04-20 17:16 69.87313 19.03006 4502 ft 149 kts 172°
2026-04-20 17:16 69.86290 19.03220 4505 ft 147 kts 185°
2026-04-20 17:16 69.85271 19.02952 4415 ft 147 kts 191°
2026-04-20 17:17 69.84276 19.02467 4209 ft 144 kts 193°
2026-04-20 17:17 69.83293 19.01887 3970 ft 144 kts 195°
2026-04-20 17:17 69.82320 19.01268 3717 ft 143 kts 195°
2026-04-20 17:17 69.81352 19.00631 3458 ft 142 kts 195°
2026-04-20 17:18 69.80385 18.99987 3204 ft 143 kts 195°
2026-04-20 17:18 69.79418 18.99337 2936 ft 143 kts 195°
2026-04-20 17:18 69.78452 18.98687 2659 ft 143 kts 195°
2026-04-20 17:18 69.77485 18.98035 2423 ft 143 kts 195°
2026-04-20 17:19 69.76521 18.97387 2156 ft 142 kts 195°
2026-04-20 17:19 69.75560 18.96740 1883 ft 140 kts 195°
2026-04-20 17:19 69.74628 18.96114 1618 ft 136 kts 195°
2026-04-20 17:19 69.73711 18.95498 1354 ft 134 kts 195°
2026-04-20 17:20 69.72805 18.94890 1088 ft 133 kts 196°
2026-04-20 17:20 69.71904 18.94285 832 ft 134 kts 197°
2026-04-20 17:20 69.70998 18.93678 591 ft 133 kts 198°
2026-04-20 17:20 69.70096 18.93075 360 ft 132 kts 198°
2026-04-20 17:21 69.69205 18.92479 115 ft 131 kts 199°
2026-04-20 17:21 69.68364 18.91890 31 ft 102 kts 193°
2026-04-20 17:21 69.67868 18.91579 38 ft 45 kts 192°
2026-04-20 17:21 69.67739 18.91442 37 ft 12 kts 242°
2026-04-20 17:22 69.67744 18.91221 38 ft 9 kts 286°
2026-04-20 17:22 69.67800 18.91144 39 ft 12 kts 10°
2026-04-20 17:22 69.67895 18.91202 37 ft 16 kts
2026-04-20 17:22 69.67993 18.91265 35 ft 13 kts 13°
2026-04-20 17:23 69.68030 18.91187 34 ft 5 kts 283°
2026-04-20 17:23 69.68036 18.91110 37 ft 2 kts 282°
2026-04-20 17:23 69.68036 18.91103 37 ft 0 kts 282°
2026-04-20 17:23 69.68037 18.91098 37 ft 1 kts 285°
2026-04-20 17:24 69.68041 18.91053 37 ft 3 kts 283°
2026-04-20 17:24 69.68046 18.90987 36 ft 4 kts 283°
2026-04-20 17:24 69.68047 18.90969 37 ft 0 kts 283°